createdAt,value
2023-06-21T00:02:25.003Z,-89
2023-06-21T00:04:57.520Z,-88
2023-06-21T00:07:29.870Z,-88
2023-06-21T00:10:02.646Z,-89
2023-06-21T00:12:34.941Z,-87
2023-06-21T00:15:11.158Z,-89
2023-06-21T00:17:43.549Z,-88
2023-06-21T00:20:17.405Z,-89
2023-06-21T00:22:57.293Z,-89
2023-06-21T00:25:29.841Z,-89
2023-06-21T00:28:02.128Z,-89
2023-06-21T00:30:38.797Z,-88
2023-06-21T00:33:11.085Z,-88
2023-06-21T00:35:43.449Z,-86
2023-06-21T00:38:15.901Z,-86
2023-06-21T00:40:51.223Z,-85
2023-06-21T00:43:24.438Z,-84
2023-06-21T00:46:00.531Z,-85
2023-06-21T00:48:36.066Z,-86
2023-06-21T00:51:09.067Z,-87
2023-06-21T00:53:41.848Z,-87
2023-06-21T00:56:18.041Z,-87
2023-06-21T00:58:50.385Z,-87
2023-06-21T01:01:26.581Z,-87
2023-06-21T01:04:00.173Z,-86
2023-06-21T01:06:41.325Z,-87
2023-06-21T01:09:28.218Z,-88
2023-06-21T01:12:12.078Z,-87
2023-06-21T01:14:58.560Z,-87
2023-06-21T01:17:39.031Z,-87
2023-06-21T01:20:19.899Z,-87
2023-06-21T01:23:11.190Z,-87
2023-06-21T01:26:00.633Z,-87
2023-06-21T01:29:07.876Z,-87
2023-06-21T01:31:43.655Z,-87
2023-06-21T01:34:17.220Z,-87
2023-06-21T01:36:49.710Z,-87
2023-06-21T01:39:22.111Z,-87
2023-06-21T01:41:54.355Z,-87
2023-06-21T01:44:31.082Z,-88
2023-06-21T01:47:04.867Z,-85
2023-06-21T01:49:39.714Z,-85
2023-06-21T01:52:13.109Z,-85
2023-06-21T01:54:46.947Z,-85
2023-06-21T01:57:22.515Z,-85
2023-06-21T01:59:57.576Z,-85
2023-06-21T02:02:30.467Z,-85
2023-06-21T02:05:03.837Z,-84
2023-06-21T02:07:36.694Z,-85
2023-06-21T02:10:11.160Z,-84
2023-06-21T02:12:45.617Z,-85
2023-06-21T02:15:21.077Z,-85
2023-06-21T02:17:54.928Z,-85
2023-06-21T02:20:27.623Z,-86
2023-06-21T02:23:00.253Z,-85
2023-06-21T02:25:36.690Z,-85
2023-06-21T02:28:09.833Z,-85
2023-06-21T02:30:44.706Z,-85
2023-06-21T02:33:17.015Z,-86
2023-06-21T02:35:49.470Z,-85
2023-06-21T02:38:21.859Z,-85
2023-06-21T02:40:54.319Z,-85
2023-06-21T02:43:26.760Z,-85
2023-06-21T02:46:01.979Z,-84
2023-06-21T02:48:34.354Z,-85
2023-06-21T02:51:06.610Z,-85
2023-06-21T02:53:38.878Z,-86
2023-06-21T02:56:11.445Z,-85
2023-06-21T02:58:43.803Z,-84
2023-06-21T03:01:18.732Z,-85
2023-06-21T03:03:51.158Z,-85
2023-06-21T03:06:30.735Z,-85
2023-06-21T03:09:04.796Z,-84
2023-06-21T03:11:37.102Z,-84
2023-06-21T03:14:09.384Z,-83
2023-06-21T03:16:45.573Z,-85
2023-06-21T03:19:18.972Z,-85
2023-06-21T03:21:51.205Z,-85
2023-06-21T03:24:23.618Z,-84
2023-06-21T03:26:56.048Z,-85
2023-06-21T03:29:28.331Z,-83
2023-06-21T03:32:03.886Z,-85
2023-06-21T03:34:36.166Z,-85
2023-06-21T03:37:09.224Z,-85
2023-06-21T03:39:41.424Z,-85
2023-06-21T03:42:13.800Z,-86
2023-06-21T03:44:46.063Z,-86
2023-06-21T03:47:23.179Z,-85
2023-06-21T03:49:58.867Z,-84
2023-06-21T03:52:31.193Z,-84
2023-06-21T03:55:03.613Z,-84
2023-06-21T03:57:35.997Z,-84
2023-06-21T04:00:11.218Z,-84
2023-06-21T04:02:46.140Z,-84
2023-06-21T04:05:18.493Z,-85
2023-06-21T04:07:51.138Z,-85
2023-06-21T04:10:23.703Z,-84
2023-06-21T04:12:56.044Z,-84
2023-06-21T04:15:30.385Z,-85
2023-06-21T04:18:05.525Z,-83
2023-06-21T04:20:37.829Z,-84
2023-06-21T04:23:10.112Z,-83
2023-06-21T04:25:42.476Z,-85
2023-06-21T04:28:14.954Z,-85
2023-06-21T04:30:47.230Z,-85
2023-06-21T04:33:22.136Z,-85
2023-06-21T04:35:54.684Z,-84
2023-06-21T04:38:27.008Z,-84
2023-06-21T04:40:59.585Z,-83
2023-06-21T04:43:31.869Z,-85
2023-06-21T04:46:04.774Z,-84
2023-06-21T04:48:39.701Z,-83
2023-06-21T04:51:16.492Z,-83
2023-06-21T04:53:50.361Z,-83
2023-06-21T04:56:24.045Z,-84
2023-06-21T04:58:56.350Z,-84
2023-06-21T05:01:28.730Z,-83
2023-06-21T05:04:03.635Z,-86
2023-06-21T05:06:35.981Z,-84
2023-06-21T05:09:10.110Z,-85
2023-06-21T05:11:42.717Z,-84
2023-06-21T05:14:15.202Z,-85
2023-06-21T05:16:47.650Z,-85
2023-06-21T05:19:22.506Z,-85
2023-06-21T05:21:54.919Z,-85
2023-06-21T05:24:27.212Z,-84
2023-06-21T05:26:59.527Z,-84
2023-06-21T05:29:36.202Z,-84
2023-06-21T05:32:09.099Z,-84
2023-06-21T05:34:43.959Z,-86
2023-06-21T05:37:16.361Z,-83
2023-06-21T05:39:49.542Z,-84
2023-06-21T05:42:21.829Z,-85
2023-06-21T05:44:54.065Z,-82
2023-06-21T05:47:26.469Z,-84
2023-06-21T05:50:01.403Z,-85
2023-06-21T05:52:33.772Z,-84
2023-06-21T05:55:06.093Z,-84
2023-06-21T05:57:38.525Z,-83
2023-06-21T06:00:12.695Z,-84
2023-06-21T06:02:45.100Z,-83
2023-06-21T06:05:20.214Z,-83
2023-06-21T06:07:52.752Z,-84
2023-06-21T06:10:25.310Z,-85
2023-06-21T06:12:58.698Z,-84
2023-06-21T06:15:31.160Z,-83
2023-06-21T06:18:03.484Z,-83
2023-06-21T06:20:38.405Z,-84
2023-06-21T06:23:14.912Z,-84
2023-06-21T06:25:47.500Z,-85
2023-06-21T06:28:20.607Z,-84
2023-06-21T06:30:52.836Z,-84
2023-06-21T06:33:25.077Z,-84
2023-06-21T06:36:01.153Z,-83
2023-06-21T06:38:33.393Z,-84
2023-06-21T06:41:05.762Z,-83
2023-06-21T06:43:38.577Z,-85
2023-06-21T06:46:10.954Z,-84
2023-06-21T06:48:43.259Z,-84
2023-06-21T06:51:18.124Z,-83
2023-06-21T06:53:50.907Z,-84
2023-06-21T06:56:24.334Z,-83
2023-06-21T06:58:56.663Z,-84
2023-06-21T07:01:29.001Z,-83
2023-06-21T07:04:01.476Z,-84
2023-06-21T07:06:37.542Z,-83
2023-06-21T07:09:09.826Z,-83
2023-06-21T07:11:42.123Z,-84
2023-06-21T07:14:14.401Z,-84
2023-06-21T07:16:48.748Z,-85
2023-06-21T07:19:21.114Z,-83
2023-06-21T07:21:56.000Z,-84
2023-06-21T07:24:28.307Z,-84
2023-06-21T07:27:01.822Z,-83
2023-06-21T07:29:34.248Z,-83
2023-06-21T07:32:06.607Z,-85
2023-06-21T07:34:38.873Z,-85
2023-06-21T07:37:16.615Z,-85
2023-06-21T07:39:54.334Z,-83
2023-06-21T07:42:28.561Z,-83
2023-06-21T07:45:00.834Z,-85
2023-06-21T07:47:33.302Z,-84
2023-06-21T07:50:21.378Z,-83
2023-06-21T07:52:57.140Z,-84
2023-06-21T07:55:29.523Z,-84
2023-06-21T07:58:02.042Z,-85
2023-06-21T08:00:34.390Z,-85
2023-06-21T08:03:06.671Z,-83
2023-06-21T08:05:38.975Z,-84
2023-06-21T08:08:15.580Z,-83
2023-06-21T08:10:47.864Z,-83
2023-06-21T08:13:23.899Z,-85
2023-06-21T08:15:56.177Z,-83
2023-06-21T08:18:28.499Z,-84
2023-06-21T08:21:00.752Z,-85
2023-06-21T08:23:35.589Z,-83
2023-06-21T08:26:07.893Z,-84
2023-06-21T08:28:40.182Z,-84
2023-06-21T08:31:12.646Z,-84
2023-06-21T08:33:45.120Z,-84
2023-06-21T08:36:17.601Z,-84
2023-06-21T08:38:52.413Z,-84
2023-06-21T08:41:24.722Z,-84
2023-06-21T08:43:57.049Z,-83
2023-06-21T08:46:31.810Z,-82
2023-06-21T08:49:09.069Z,-85
2023-06-21T08:51:43.301Z,-83
2023-06-21T08:54:20.867Z,-82
2023-06-21T08:57:00.951Z,-82
2023-06-21T08:59:40.859Z,-83
2023-06-21T09:02:28.960Z,-81
2023-06-21T09:05:07.698Z,-82
2023-06-21T09:07:42.521Z,-80
2023-06-21T09:10:22.097Z,-82
2023-06-21T09:12:56.223Z,-82
2023-06-21T09:15:30.267Z,-82
2023-06-21T09:18:02.956Z,-82
2023-06-21T09:20:36.008Z,-82
2023-06-21T09:23:08.537Z,-83
2023-06-21T09:25:46.097Z,-81
2023-06-21T09:28:19.613Z,-82
2023-06-21T09:30:52.013Z,-83
2023-06-21T09:33:24.760Z,-83
2023-06-21T09:35:57.928Z,-82
2023-06-21T09:38:34.120Z,-84
2023-06-21T09:41:11.974Z,-82
2023-06-21T09:43:47.206Z,-83
2023-06-21T09:46:19.968Z,-82
2023-06-21T09:48:52.260Z,-82
2023-06-21T09:51:29.584Z,-83
2023-06-21T09:54:01.813Z,-82
2023-06-21T09:56:38.436Z,-83
2023-06-21T09:59:19.257Z,-81
2023-06-21T10:01:53.658Z,-83
2023-06-21T10:04:25.928Z,-81
2023-06-21T10:06:58.258Z,-83
2023-06-21T10:09:30.520Z,-82
2023-06-21T10:12:05.363Z,-82
2023-06-21T10:14:37.623Z,-82
2023-06-21T10:17:10.226Z,-82
2023-06-21T10:19:46.751Z,-82
2023-06-21T10:22:24.725Z,-86
2023-06-21T10:24:58.456Z,-82
2023-06-21T10:27:33.799Z,-83
2023-06-21T10:30:08.973Z,-82
2023-06-21T10:32:43.909Z,-81
2023-06-21T10:35:20.873Z,-82
2023-06-21T10:38:03.201Z,-81
2023-06-21T10:40:39.193Z,-81
2023-06-21T10:43:15.137Z,-82
2023-06-21T10:45:49.200Z,-81
2023-06-21T10:48:22.352Z,-83
2023-06-21T10:50:57.218Z,-83
2023-06-21T10:53:32.521Z,-81
2023-06-21T10:56:07.475Z,-81
2023-06-21T10:58:46.070Z,-83
2023-06-21T11:01:19.275Z,-81
2023-06-21T11:03:51.597Z,-81
2023-06-21T11:06:34.295Z,-82
2023-06-21T11:09:13.993Z,-82
2023-06-21T11:11:56.020Z,-80
2023-06-21T11:14:35.931Z,-81
2023-06-21T11:17:16.428Z,-81
2023-06-21T11:19:49.521Z,-81
2023-06-21T11:22:23.138Z,-81
2023-06-21T11:25:02.104Z,-81
2023-06-21T11:27:34.879Z,-81
2023-06-21T11:30:14.111Z,-80
2023-06-21T11:32:59.306Z,-81
2023-06-21T11:35:53.274Z,-81
2023-06-21T11:38:25.816Z,-81
2023-06-21T11:40:58.046Z,-81
2023-06-21T11:43:31.039Z,-81
2023-06-21T11:46:09.407Z,-82
2023-06-21T11:48:45.242Z,-79
2023-06-21T11:51:17.466Z,-81
2023-06-21T11:53:51.610Z,-80
2023-06-21T11:56:25.177Z,-80
2023-06-21T11:58:57.410Z,-82
2023-06-21T12:01:32.219Z,-80
2023-06-21T12:04:05.112Z,-81
2023-06-21T12:06:38.067Z,-80
2023-06-21T12:09:14.245Z,-81
2023-06-21T12:11:46.602Z,-80
2023-06-21T12:14:19.056Z,-79
2023-06-21T12:16:54.784Z,-81
2023-06-21T12:19:27.057Z,-81
2023-06-21T12:22:05.662Z,-80
2023-06-21T12:24:38.081Z,-82
2023-06-21T12:27:10.619Z,-79
2023-06-21T12:29:42.916Z,-81
2023-06-21T12:32:19.600Z,-79
2023-06-21T12:34:52.438Z,-80
2023-06-21T12:37:25.436Z,-81
2023-06-21T12:39:58.741Z,-81
2023-06-21T12:42:34.418Z,-81
2023-06-21T12:45:06.966Z,-81
2023-06-21T12:47:42.015Z,-80
2023-06-21T12:50:15.169Z,-80
2023-06-21T12:52:47.393Z,-80
2023-06-21T12:55:21.452Z,-80
2023-06-21T12:57:53.831Z,-80
2023-06-21T13:00:26.650Z,-79
2023-06-21T13:03:01.839Z,-80
2023-06-21T13:05:34.292Z,-80
2023-06-21T13:08:09.468Z,-79
2023-06-21T13:10:41.731Z,-79
2023-06-21T13:13:14.123Z,-80
2023-06-21T13:15:46.469Z,-79
2023-06-21T13:18:23.637Z,-82
2023-06-21T13:20:59.321Z,-81
2023-06-21T13:23:32.143Z,-79
2023-06-21T13:26:04.664Z,-81
2023-06-21T13:28:36.964Z,-79
2023-06-21T13:31:09.508Z,-78
2023-06-21T13:33:44.412Z,-79
2023-06-21T13:36:16.768Z,-79
2023-06-21T13:38:49.023Z,-79
2023-06-21T13:41:21.401Z,-80
2023-06-21T13:43:53.745Z,-80
2023-06-21T13:46:26.253Z,-79
2023-06-21T13:49:01.188Z,-79
2023-06-21T13:51:33.521Z,-79
2023-06-21T13:54:05.787Z,-78
2023-06-21T13:56:38.173Z,-81
2023-06-21T13:59:10.435Z,-79
2023-06-21T14:01:42.735Z,-80
2023-06-21T14:04:17.836Z,-79
2023-06-21T14:06:50.386Z,-79
2023-06-21T14:09:22.597Z,-79
2023-06-21T14:11:55.047Z,-79
2023-06-21T14:14:27.631Z,-81
2023-06-21T14:17:00.061Z,-79
2023-06-21T14:19:34.949Z,-79
2023-06-21T14:22:07.314Z,-80
2023-06-21T14:24:39.628Z,-79
2023-06-21T14:27:11.965Z,-81
2023-06-21T14:29:47.435Z,-80
2023-06-21T14:32:19.677Z,-79
2023-06-21T14:34:54.895Z,-79
2023-06-21T14:37:28.089Z,-79
2023-06-21T14:40:00.760Z,-79
2023-06-21T14:42:33.167Z,-80
2023-06-21T14:45:05.388Z,-80
2023-06-21T14:47:37.729Z,-79
2023-06-21T14:50:13.396Z,-80
2023-06-21T14:52:45.979Z,-80
2023-06-21T14:55:18.251Z,-78
2023-06-21T14:57:54.449Z,-80
2023-06-21T15:00:27.571Z,-79
2023-06-21T15:03:00.916Z,-78
2023-06-21T15:05:35.812Z,-79
2023-06-21T15:08:08.202Z,-79
2023-06-21T15:10:40.370Z,-79
2023-06-21T15:13:12.647Z,-79
2023-06-21T15:15:45.298Z,-79
2023-06-21T15:18:18.094Z,-78
2023-06-21T15:20:52.936Z,-79
2023-06-21T15:23:25.135Z,-78
2023-06-21T15:25:57.450Z,-80
2023-06-21T15:28:29.818Z,-79
2023-06-21T15:31:04.433Z,-79
2023-06-21T15:33:36.858Z,-78
2023-06-21T15:36:11.915Z,-79
2023-06-21T15:38:44.151Z,-80
2023-06-21T15:41:16.387Z,-80
2023-06-21T15:43:48.640Z,-80
2023-06-21T15:46:22.077Z,-80
2023-06-21T15:48:54.681Z,-80
2023-06-21T15:51:29.674Z,-79
2023-06-21T15:54:02.081Z,-79
2023-06-21T15:56:34.363Z,-81
2023-06-21T15:59:06.583Z,-80
2023-06-21T16:01:38.888Z,-80
2023-06-21T16:04:11.430Z,-79
2023-06-21T16:06:46.430Z,-79
2023-06-21T16:09:18.629Z,-80
2023-06-21T16:11:50.881Z,-80
2023-06-21T16:14:23.315Z,-79
2023-06-21T16:16:55.843Z,-80
2023-06-21T16:19:28.871Z,-80
2023-06-21T16:22:03.775Z,-80
2023-06-21T16:24:36.044Z,-79
2023-06-21T16:27:09.850Z,-80
2023-06-21T16:29:42.145Z,-79
2023-06-21T16:32:14.386Z,-79
2023-06-21T16:34:47.124Z,-79
2023-06-21T16:37:21.976Z,-79
2023-06-21T16:39:54.772Z,-79
2023-06-21T16:42:30.393Z,-79
2023-06-21T16:45:05.638Z,-79
2023-06-21T16:47:38.135Z,-79
2023-06-21T16:50:11.030Z,-78
2023-06-21T16:52:46.019Z,-79
2023-06-21T16:55:18.432Z,-79
2023-06-21T16:57:50.803Z,-78
2023-06-21T17:00:23.641Z,-79
2023-06-21T17:02:56.055Z,-79
2023-06-21T17:05:29.391Z,-78
2023-06-21T17:08:04.490Z,-79
2023-06-21T17:10:36.779Z,-78
2023-06-21T17:13:08.978Z,-78
2023-06-21T17:15:41.171Z,-78
2023-06-21T17:18:14.105Z,-77
2023-06-21T17:20:46.437Z,-78
2023-06-21T17:23:21.286Z,-78
2023-06-21T17:25:53.733Z,-78
2023-06-21T17:28:25.977Z,-79
2023-06-21T17:30:58.544Z,-79
2023-06-21T17:33:30.932Z,-79
2023-06-21T17:36:07.583Z,-79
2023-06-21T17:38:42.454Z,-79
2023-06-21T17:41:14.690Z,-78
2023-06-21T17:43:47.035Z,-79
2023-06-21T17:46:19.630Z,-77
2023-06-21T17:48:51.995Z,-79
2023-06-21T17:51:24.971Z,-79
2023-06-21T17:54:00.351Z,-80
2023-06-21T17:56:33.961Z,-79
2023-06-21T17:59:07.360Z,-80
2023-06-21T18:01:39.629Z,-78
2023-06-21T18:04:12.175Z,-80
2023-06-21T18:06:44.950Z,-80
2023-06-21T18:09:19.861Z,-79
2023-06-21T18:11:52.186Z,-80
2023-06-21T18:14:24.566Z,-80
2023-06-21T18:16:56.916Z,-79
2023-06-21T18:19:29.177Z,-79
2023-06-21T18:22:12.244Z,-78
2023-06-21T18:24:48.521Z,-78
2023-06-21T18:27:20.936Z,-78
2023-06-21T18:30:02.068Z,-79
2023-06-21T18:32:36.835Z,-78
2023-06-21T18:35:10.652Z,-78
2023-06-21T18:37:44.220Z,-79
2023-06-21T18:40:20.028Z,-79
2023-06-21T18:42:52.216Z,-80
2023-06-21T18:45:24.470Z,-80
2023-06-21T18:47:56.971Z,-80
2023-06-21T18:50:29.515Z,-80
2023-06-21T18:53:02.061Z,-80
2023-06-21T18:55:36.936Z,-80
2023-06-21T18:58:09.157Z,-80
2023-06-21T19:00:41.453Z,-78
2023-06-21T19:03:13.856Z,-79
2023-06-21T19:05:46.531Z,-80
2023-06-21T19:08:18.827Z,-80
2023-06-21T19:10:53.720Z,-80
2023-06-21T19:13:26.108Z,-79
2023-06-21T19:16:00.630Z,-79
2023-06-21T19:18:32.864Z,-80
2023-06-21T19:21:05.098Z,-78
2023-06-21T19:23:37.306Z,-79
2023-06-21T19:26:12.233Z,-82
2023-06-21T19:28:44.460Z,-80
2023-06-21T19:31:18.408Z,-81
2023-06-21T19:33:50.769Z,-79
2023-06-21T19:36:23.311Z,-79
2023-06-21T19:38:55.577Z,-81
2023-06-21T19:41:30.452Z,-79
2023-06-21T19:44:02.670Z,-81
2023-06-21T19:46:35.769Z,-80
2023-06-21T19:49:08.070Z,-80
2023-06-21T19:51:40.312Z,-79
2023-06-21T19:54:12.591Z,-79
2023-06-21T19:56:49.769Z,-80
2023-06-21T19:59:22.210Z,-81
2023-06-21T20:01:54.629Z,-80
2023-06-21T20:04:26.996Z,-80
2023-06-21T20:06:59.395Z,-79
2023-06-21T20:09:31.973Z,-80
2023-06-21T20:12:06.941Z,-79
2023-06-21T20:14:39.960Z,-80
2023-06-21T20:17:12.810Z,-79
2023-06-21T20:19:45.243Z,-81
2023-06-21T20:22:18.096Z,-79
2023-06-21T20:24:52.080Z,-80
2023-06-21T20:27:27.900Z,-82
2023-06-21T20:30:00.177Z,-81
2023-06-21T20:32:32.424Z,-78
2023-06-21T20:35:05.224Z,-80
2023-06-21T20:37:39.308Z,-82
2023-06-21T20:40:15.775Z,-78
2023-06-21T20:42:50.634Z,-80
2023-06-21T20:45:31.826Z,-80
2023-06-21T20:48:04.923Z,-81
2023-06-21T20:50:37.410Z,-81
2023-06-21T20:53:09.699Z,-80
2023-06-21T20:55:42.169Z,-80
2023-06-21T20:58:18.104Z,-80
2023-06-21T21:00:52.810Z,-80
2023-06-21T21:03:25.078Z,-80
2023-06-21T21:05:57.468Z,-81
2023-06-21T21:08:29.742Z,-81
2023-06-21T21:11:01.981Z,-83
2023-06-21T21:13:38.122Z,-79
2023-06-21T21:16:10.595Z,-81
2023-06-21T21:18:42.814Z,-81
2023-06-21T21:21:15.059Z,-81
2023-06-21T21:23:47.345Z,-81
2023-06-21T21:26:19.916Z,-80
2023-06-21T21:28:54.713Z,-81
2023-06-21T21:31:27.068Z,-81
2023-06-21T21:33:59.287Z,-81
2023-06-21T21:36:33.574Z,-81
2023-06-21T21:39:05.868Z,-81
2023-06-21T21:41:38.058Z,-81
2023-06-21T21:44:13.078Z,-81
2023-06-21T21:46:45.466Z,-81
2023-06-21T21:49:17.805Z,-83
2023-06-21T21:51:50.074Z,-84
2023-06-21T21:54:22.300Z,-82
2023-06-21T21:56:54.797Z,-82
2023-06-21T21:59:29.571Z,-82
2023-06-21T22:02:01.867Z,-82
2023-06-21T22:04:37.237Z,-81
2023-06-21T22:07:10.273Z,-81
2023-06-21T22:09:42.540Z,-82
2023-06-21T22:12:15.180Z,-81
2023-06-21T22:14:51.715Z,-83
2023-06-21T22:17:26.278Z,-84
2023-06-21T22:19:58.573Z,-84
2023-06-21T22:22:31.103Z,-82
2023-06-21T22:25:03.354Z,-81
2023-06-21T22:27:35.793Z,-82
2023-06-21T22:30:11.933Z,-81
2023-06-21T22:32:44.249Z,-81
2023-06-21T22:35:16.505Z,-81
2023-06-21T22:37:48.900Z,-82
2023-06-21T22:40:21.292Z,-81
2023-06-21T22:42:56.201Z,-83
2023-06-21T22:45:31.032Z,-83
2023-06-21T22:48:08.452Z,-82
2023-06-21T22:50:40.817Z,-81
2023-06-21T22:53:13.198Z,-81
2023-06-21T22:55:46.924Z,-82
2023-06-21T22:58:19.156Z,-82
2023-06-21T23:00:55.017Z,-83
2023-06-21T23:03:29.109Z,-82
2023-06-21T23:06:01.514Z,-82
2023-06-21T23:08:33.851Z,-82
2023-06-21T23:11:06.689Z,-82
2023-06-21T23:13:38.891Z,-83
2023-06-21T23:16:14.689Z,-81
2023-06-21T23:18:46.966Z,-82
2023-06-21T23:21:19.927Z,-81
2023-06-21T23:23:52.193Z,-83
2023-06-21T23:26:27.473Z,-83
2023-06-21T23:29:02.269Z,-82
2023-06-21T23:31:37.208Z,-83
2023-06-21T23:34:12.738Z,-82
2023-06-21T23:36:47.749Z,-82
2023-06-21T23:39:20.147Z,-81
2023-06-21T23:41:52.337Z,-81
2023-06-21T23:44:28.012Z,-82
2023-06-21T23:47:03.000Z,-80
2023-06-21T23:49:35.200Z,-82
2023-06-21T23:52:07.650Z,-82
2023-06-21T23:54:40.063Z,-82
2023-06-21T23:57:12.573Z,-81
2023-06-21T23:59:44.838Z,-82
